Terminal Aerodrome Forecast
Issued by NWS Sioux Falls, SD

Home | Current Version | Previous Version | Text Only | Print | Product List | Glossary On
Versions: 1 2 3 4 5 6 7 8 9 10 11 12 13 14 15 16 17 18 19 20 21 22 23 24
000
FTUS43 KFSD 010533
TAFHON
TAF
KHON 010533Z 0106/0206 VRB03KT 1SM BR SCT005 SCT120
      TEMPO 0106/0107 1/4SM FG VV003
     FM010700 17004KT 5SM BR BKN090
      TEMPO 0108/0112 4SM -SHRA BR BKN050
     FM011700 16007KT P6SM SCT045 BKN120
     FM020000 12008KT P6SM BKN100=

USA.gov is the U.S. government's official web portal to all federal, state and local government web resources and services.